Time;durP1;ratioP1;P1;durP2;ratioP2;P2;SDS_P1;SDS_P2;PMS_P1;PMS_P2;Temp;Humidity;BMP_temperature;BMP_pressure;BME280_temperature;BME280_humidity;BME280_pressure;Samples;Min_cycle;Max_cycle;Signal;HPM_P1;HPM_P2
2023/08/14 00:00:45;;;;;;;9.80;6.00;;;;;;;20.41;79.67;100412.89;129939;1260;115160;-75
2023/08/14 00:04:07;;;;;;;7.40;5.10;;;;;;;20.43;79.68;100412.91;129866;1260;114813;-75
2023/08/14 00:07:09;;;;;;;5.80;5.00;;;;;;;20.46;79.60;100409.17;129886;1260;114750;-71
2023/08/14 00:10:11;;;;;;;7.10;5.40;;;;;;;20.46;79.70;100413.66;130049;1272;114722;-69
2023/08/14 00:13:18;;;;;;;8.10;6.20;;;;;;;20.46;79.78;100420.42;130020;1272;128593;-75
2023/08/14 00:16:21;;;;;;;8.10;5.80;;;;;;;20.45;79.73;100420.65;129730;1261;115249;-74
2023/08/14 00:19:23;;;;;;;10.00;5.70;;;;;;;20.46;79.70;100422.00;130052;1256;114809;-73
2023/08/14 00:22:25;;;;;;;7.40;4.90;;;;;;;20.47;79.90;100429.01;129882;1256;114763;-72
2023/08/14 00:25:27;;;;;;;7.60;6.60;;;;;;;20.48;79.90;100432.91;129862;1262;114995;-76
2023/08/14 00:28:29;;;;;;;5.90;5.10;;;;;;;20.48;80.19;100437.23;129757;1264;114887;-75
2023/08/14 00:31:31;;;;;;;8.30;5.80;;;;;;;20.50;80.28;100446.58;130016;1257;115371;-76
2023/08/14 00:34:33;;;;;;;8.00;5.10;;;;;;;20.50;80.18;100446.73;130012;1261;114699;-77
2023/08/14 00:37:46;;;;;;;8.40;5.90;;;;;;;20.52;80.19;100441.88;129940;1261;114760;-75
2023/08/14 00:40:48;;;;;;;7.20;5.40;;;;;;;20.52;80.13;100443.72;130077;1256;114728;-75
2023/08/14 00:43:51;;;;;;;7.30;5.40;;;;;;;20.51;80.22;100438.66;130044;1258;114745;-75
2023/08/14 00:46:53;;;;;;;8.10;6.00;;;;;;;20.51;80.43;100434.00;130022;1272;114822;-74
2023/08/14 00:49:55;;;;;;;7.60;5.90;;;;;;;20.50;80.34;100432.56;130215;1261;114731;-72
2023/08/14 00:52:59;;;;;;;7.50;6.00;;;;;;;20.50;80.48;100437.13;129810;1266;127570;-75
2023/08/14 00:56:02;;;;;;;7.90;5.70;;;;;;;20.50;80.41;100436.75;129997;1261;114781;-76
2023/08/14 00:59:04;;;;;;;6.90;5.70;;;;;;;20.50;80.51;100437.66;129954;1261;114665;-76
2023/08/14 01:02:06;;;;;;;7.20;5.60;;;;;;;20.50;80.63;100436.39;129881;1262;114992;-76
2023/08/14 01:05:07;;;;;;;14.00;5.40;;;;;;;20.52;80.64;100434.64;129975;1257;114794;-70
2023/08/14 01:08:09;;;;;;;7.70;6.20;;;;;;;20.52;80.65;100434.23;129655;1265;114901;-73
2023/08/14 01:11:54;;;;;;;6.40;5.80;;;;;;;20.52;80.65;100438.97;129916;1279;114893;-68
2023/08/14 01:15:02;;;;;;;5.70;5.00;;;;;;;20.52;80.71;100442.20;129336;1265;114845;-72
2023/08/14 01:18:04;;;;;;;7.30;5.30;;;;;;;20.53;80.77;100445.77;129349;1269;114908;-78
2023/08/14 01:21:15;;;;;;;5.20;4.80;;;;;;;20.53;80.97;100448.49;129265;1265;115494;-78
2023/08/14 01:24:24;;;;;;;6.30;5.10;;;;;;;20.52;80.85;100449.64;129257;1270;114899;-77
2023/08/14 01:27:26;;;;;;;5.80;4.90;;;;;;;20.52;80.98;100449.16;129200;1265;127821;-77
2023/08/14 01:30:28;;;;;;;6.40;5.50;;;;;;;20.51;81.14;100444.26;129307;1271;114992;-77
2023/08/14 01:33:30;;;;;;;7.50;5.40;;;;;;;20.52;81.05;100445.33;129367;1265;115277;-76
2023/08/14 01:36:36;;;;;;;7.90;5.30;;;;;;;20.52;81.19;100450.73;129264;1266;114948;-76
2023/08/14 01:39:49;;;;;;;7.00;5.30;;;;;;;20.53;81.14;100447.77;129274;1270;114922;-76
2023/08/14 01:42:57;;;;;;;5.60;5.10;;;;;;;20.53;81.32;100449.23;129189;1271;114830;-77
2023/08/14 01:45:59;;;;;;;7.10;5.00;;;;;;;20.52;81.35;100443.86;129017;1268;127670;-77
2023/08/14 01:49:02;;;;;;;6.80;5.00;;;;;;;20.52;81.37;100441.52;129311;1265;114946;-76
2023/08/14 01:52:05;;;;;;;5.50;4.90;;;;;;;20.52;81.36;100439.52;129588;1260;115202;-77
2023/08/14 01:55:07;;;;;;;6.20;5.00;;;;;;;20.52;81.37;100428.25;129959;1257;114884;-73
2023/08/14 01:58:09;;;;;;;6.30;5.20;;;;;;;20.52;81.35;100432.23;129850;1260;114737;-72
2023/08/14 02:01:11;;;;;;;6.20;5.10;;;;;;;20.51;81.40;100436.85;129593;1264;114733;-73
2023/08/14 02:04:13;;;;;;;8.30;5.70;;;;;;;20.49;81.50;100440.25;129833;1259;114757;-73
2023/08/14 02:07:15;;;;;;;7.60;5.60;;;;;;;20.47;81.59;100446.02;129888;1261;115158;-77
2023/08/14 02:10:18;;;;;;;5.50;5.00;;;;;;;20.47;81.55;100440.83;129797;1261;115317;-77
2023/08/14 02:13:20;;;;;;;6.80;5.50;;;;;;;20.44;81.56;100436.15;129923;1262;114800;-78
2023/08/14 02:16:22;;;;;;;10.70;7.80;;;;;;;20.42;81.57;100436.54;129893;1257;114741;-68
2023/08/14 02:19:24;;;;;;;9.20;5.60;;;;;;;20.39;81.66;100435.16;129879;1261;114879;-76
2023/08/14 02:22:26;;;;;;;9.30;5.30;;;;;;;20.37;81.63;100433.05;129997;1262;114739;-77
2023/08/14 02:25:28;;;;;;;9.40;4.90;;;;;;;20.31;81.55;100427.85;129978;1262;114753;-77
2023/08/14 02:28:30;;;;;;;8.40;5.40;;;;;;;20.27;81.68;100425.02;129686;1257;127933;-78
2023/08/14 02:31:32;;;;;;;7.70;5.90;;;;;;;20.21;81.92;100424.05;129906;1260;114722;-77
2023/08/14 02:34:48;;;;;;;6.50;5.90;;;;;;;20.16;82.07;100425.26;129971;1262;114809;-77
2023/08/14 02:37:50;;;;;;;8.30;6.50;;;;;;;20.11;82.06;100420.82;129846;1262;114823;-76
2023/08/14 02:40:52;;;;;;;9.90;6.60;;;;;;;20.05;82.06;100427.07;129913;1262;115396;-70
2023/08/14 02:43:54;;;;;;;7.20;5.90;;;;;;;19.99;82.23;100419.42;129990;1256;114727;-75
2023/08/14 02:46:57;;;;;;;7.60;6.60;;;;;;;19.94;82.42;100413.04;129821;1263;114827;-75
2023/08/14 02:49:59;;;;;;;7.00;6.30;;;;;;;19.88;82.53;100404.44;130142;1262;114788;-77
2023/08/14 02:53:02;;;;;;;7.50;6.40;;;;;;;19.84;82.75;100402.57;129964;1263;114832;-74
2023/08/14 02:56:04;;;;;;;9.30;5.70;;;;;;;19.81;82.82;100395.42;130085;1263;114811;-75
2023/08/14 02:59:06;;;;;;;8.30;6.10;;;;;;;19.77;82.84;100397.08;129963;1265;114718;-77
2023/08/14 03:02:08;;;;;;;7.30;6.20;;;;;;;19.72;82.90;100404.38;129995;1264;114849;-78
2023/08/14 03:05:10;;;;;;;6.90;5.60;;;;;;;19.67;82.94;100409.67;130097;1261;114798;-78
2023/08/14 03:08:11;;;;;;;9.50;6.00;;;;;;;19.63;83.14;100409.29;130202;1262;115301;-76
2023/08/14 03:11:13;;;;;;;6.40;5.80;;;;;;;19.58;83.16;100397.36;129995;1257;115106;-74
2023/08/14 03:14:15;;;;;;;9.00;6.30;;;;;;;19.54;83.22;100399.02;129936;1257;114808;-77
2023/08/14 03:17:17;;;;;;;8.10;6.00;;;;;;;19.49;83.30;100400.69;129828;1257;116356;-77
2023/08/14 03:20:19;;;;;;;7.80;5.40;;;;;;;19.43;83.39;100412.96;130021;1262;114748;-77
2023/08/14 03:23:21;;;;;;;8.40;6.60;;;;;;;19.38;83.51;100412.13;130082;1260;114829;-75
2023/08/14 03:26:23;;;;;;;7.80;7.00;;;;;;;19.33;83.57;100416.21;130001;1257;114726;-72
2023/08/14 03:29:27;;;;;;;12.10;8.10;;;;;;;19.28;83.89;100422.61;130105;1262;114724;-77
2023/08/14 03:32:29;;;;;;;9.90;7.30;;;;;;;19.24;84.05;100425.12;130087;1267;114865;-76
2023/08/14 03:35:31;;;;;;;10.30;7.80;;;;;;;19.20;84.36;100420.33;130053;1263;116386;-75
2023/08/14 03:38:33;;;;;;;8.40;7.60;;;;;;;19.17;84.34;100422.83;129943;1258;115176;-77
2023/08/14 03:41:35;;;;;;;9.40;7.10;;;;;;;19.13;84.43;100429.98;130031;1261;114818;-76
2023/08/14 03:44:37;;;;;;;12.90;7.40;;;;;;;19.10;84.51;100437.86;129995;1262;114751;-80
2023/08/14 03:47:39;;;;;;;9.30;6.80;;;;;;;19.07;84.62;100438.47;129879;1279;114814;-78
2023/08/14 03:50:46;;;;;;;11.60;7.20;;;;;;;19.04;84.88;100443.20;130245;1257;115310;-78
2023/08/14 03:53:48;;;;;;;9.60;6.30;;;;;;;19.01;84.95;100436.20;129960;1257;128446;-77
2023/08/14 03:56:49;;;;;;;8.30;6.60;;;;;;;19.00;84.95;100433.81;130033;1271;115203;-73
2023/08/14 03:59:51;;;;;;;7.60;6.90;;;;;;;18.98;85.04;100431.02;130161;1274;114808;-74
2023/08/14 04:02:53;;;;;;;9.40;8.00;;;;;;;18.96;85.08;100439.54;130066;1278;114810;-74
2023/08/14 04:05:59;;;;;;;9.40;7.70;;;;;;;18.96;85.59;100445.33;130237;1261;114722;-68
2023/08/14 04:09:02;;;;;;;8.20;7.20;;;;;;;18.97;85.65;100443.22;129640;1257;115016;-74
2023/08/14 04:12:04;;;;;;;13.60;7.20;;;;;;;18.98;85.62;100440.08;129878;1256;128496;-72
2023/08/14 04:15:17;;;;;;;7.80;6.70;;;;;;;18.99;85.69;100436.20;129865;1256;116424;-76
2023/08/14 04:18:19;;;;;;;10.50;7.40;;;;;;;19.02;85.88;100432.91;129721;1262;114917;-75
2023/08/14 04:21:23;;;;;;;7.30;6.60;;;;;;;19.05;86.05;100437.91;129966;1277;115148;-72
2023/08/14 04:24:25;;;;;;;;;;;;;;;19.10;86.46;100442.00;130171;1256;114758;-76
2023/08/14 04:27:27;;;;;;;8.50;7.60;;;;;;;19.16;86.84;100442.97;130203;1257;114780;-76
2023/08/14 04:30:29;;;;;;;10.10;7.50;;;;;;;19.25;86.88;100443.11;130100;1262;114792;-76
2023/08/14 04:33:31;;;;;;;8.20;7.40;;;;;;;19.36;87.16;100446.58;129913;1262;115230;-76
2023/08/14 04:36:34;;;;;;;8.20;7.30;;;;;;;19.45;86.95;100449.20;130051;1261;114808;-77
2023/08/14 04:39:36;;;;;;;8.10;7.30;;;;;;;19.54;87.00;100458.42;129966;1262;115357;-75
2023/08/14 04:42:38;;;;;;;8.50;7.10;;;;;;;19.63;87.08;100458.64;129995;1257;114734;-76
2023/08/14 04:45:40;;;;;;;8.70;7.20;;;;;;;19.72;87.13;100465.43;129722;1262;114717;-77
2023/08/14 04:48:42;;;;;;;8.70;7.10;;;;;;;19.82;87.07;100458.27;129914;1260;114932;-77
2023/08/14 04:51:44;;;;;;;9.60;7.80;;;;;;;19.93;86.92;100464.05;130124;1262;114729;-74
2023/08/14 04:54:46;;;;;;;9.80;7.30;;;;;;;20.02;86.74;100459.98;129977;1257;115557;-74
2023/08/14 04:57:48;;;;;;;8.10;6.70;;;;;;;20.10;86.58;100456.06;129975;1260;114731;-77
2023/08/14 05:00:51;;;;;;;12.30;7.10;;;;;;;20.18;86.50;100461.84;129942;1257;115266;-76
2023/08/14 05:03:56;;;;;;;10.60;6.90;;;;;;;20.27;86.41;100470.16;129974;1263;114732;-76
2023/08/14 05:06:58;;;;;;;7.70;7.00;;;;;;;20.36;86.32;100470.08;130078;1279;114820;-77
2023/08/14 05:10:00;;;;;;;14.90;7.00;;;;;;;20.49;86.46;100467.70;130085;1256;114737;-79
2023/08/14 05:13:02;;;;;;;8.30;7.20;;;;;;;20.66;86.52;100470.52;130225;1257;114723;-79
2023/08/14 05:16:04;;;;;;;12.50;7.60;;;;;;;20.80;86.20;100469.50;130013;1260;115163;-76
2023/08/14 05:19:06;;;;;;;10.80;7.10;;;;;;;21.05;86.44;100469.41;130055;1263;114877;-77
2023/08/14 05:22:08;;;;;;;7.50;5.40;;;;;;;21.42;86.44;100469.34;129977;1257;114734;-71
2023/08/14 05:25:10;;;;;;;7.00;5.90;;;;;;;21.77;86.08;100470.10;129992;1257;114726;-75
2023/08/14 05:28:12;;;;;;;5.90;4.80;;;;;;;22.15;85.56;100461.77;130081;1262;115056;-77
2023/08/14 05:31:14;;;;;;;9.40;4.50;;;;;;;22.51;85.08;100465.69;130222;1262;114791;-72
2023/08/14 05:34:16;;;;;;;7.10;4.50;;;;;;;22.85;84.18;100471.41;129667;1263;128591;-76
2023/08/14 05:37:18;;;;;;;5.40;4.30;;;;;;;23.15;83.31;100475.45;130113;1261;114871;-76
2023/08/14 05:40:20;;;;;;;5.70;4.00;;;;;;;23.35;82.68;100478.38;130030;1260;115386;-78
2023/08/14 05:43:22;;;;;;;4.40;4.00;;;;;;;23.59;82.29;100473.04;129980;1262;114750;-75
2023/08/14 05:46:24;;;;;;;7.30;4.30;;;;;;;23.76;81.63;100475.09;130002;1261;114798;-75
2023/08/14 05:49:26;;;;;;;8.40;3.70;;;;;;;23.90;81.46;100478.77;130001;1262;114803;-78
2023/08/14 05:52:28;;;;;;;6.40;4.30;;;;;;;24.01;80.66;100477.20;129918;1263;114803;-77
2023/08/14 05:55:34;;;;;;;7.10;3.60;;;;;;;24.14;80.82;100478.22;129879;1259;114741;-78
2023/08/14 05:58:37;;;;;;;8.90;4.20;;;;;;;24.31;80.41;100481.52;129889;1280;115202;-78
2023/08/14 06:01:39;;;;;;;7.50;4.00;;;;;;;24.51;80.15;100482.57;129825;1262;114763;-79
2023/08/14 06:04:41;;;;;;;9.70;3.30;;;;;;;24.71;79.74;100484.64;129813;1262;114694;-80
2023/08/14 06:07:43;;;;;;;5.10;4.00;;;;;;;24.94;79.23;100485.90;130186;1271;114681;-78
2023/08/14 06:10:45;;;;;;;6.30;3.30;;;;;;;25.08;78.53;100486.70;129883;1265;114852;-78
2023/08/14 06:13:47;;;;;;;8.50;4.50;;;;;;;25.16;77.81;100487.87;129836;1263;114882;-79
2023/08/14 06:16:49;;;;;;;5.10;4.10;;;;;;;25.20;77.15;100498.19;129874;1264;114734;-79
2023/08/14 06:19:51;;;;;;;8.60;4.30;;;;;;;25.30;77.29;100496.73;129841;1264;114728;-82
2023/08/14 06:22:53;;;;;;;7.50;4.00;;;;;;;25.41;76.71;100495.46;130160;1262;114820;-80
2023/08/14 06:25:57;;;;;;;4.50;3.70;;;;;;;25.45;76.21;100499.61;130127;1263;114724;-80
2023/08/14 06:28:59;;;;;;;4.90;4.00;;;;;;;25.59;76.13;100501.92;130008;1262;114812;-80
2023/08/14 06:32:01;;;;;;;5.90;3.80;;;;;;;25.92;76.17;100499.73;129999;1264;114738;-80
2023/08/14 06:35:04;;;;;;;8.80;3.90;;;;;;;26.31;75.83;100501.05;130158;1256;115472;-80
2023/08/14 06:38:06;;;;;;;8.10;3.90;;;;;;;26.69;75.34;100496.77;130085;1280;129274;-81
2023/08/14 06:41:08;;;;;;;5.80;3.60;;;;;;;27.00;74.28;100493.40;129939;1263;116233;-82
2023/08/14 06:44:11;;;;;;;5.20;4.00;;;;;;;27.31;73.61;100495.43;130075;1262;114731;-80
2023/08/14 06:47:13;;;;;;;4.60;3.40;;;;;;;27.65;72.84;100497.70;129905;1262;115197;-81
2023/08/14 06:50:15;;;;;;;5.00;3.80;;;;;;;27.98;72.01;100491.06;129707;1265;116167;-79
2023/08/14 06:53:17;;;;;;;5.00;3.20;;;;;;;28.28;71.40;100489.70;129894;1262;114728;-81
2023/08/14 06:56:19;;;;;;;3.40;3.00;;;;;;;28.57;70.45;100490.55;130079;1263;114735;-71
2023/08/14 06:59:21;;;;;;;7.00;3.80;;;;;;;28.84;69.45;100500.84;129677;1257;120227;-79
2023/08/14 07:02:23;;;;;;;6.90;3.70;;;;;;;29.13;68.93;100500.34;130002;1261;114804;-81
2023/08/14 07:05:25;;;;;;;6.00;3.00;;;;;;;29.38;67.95;100503.52;129910;1262;114796;-80
2023/08/14 07:08:27;;;;;;;4.50;3.00;;;;;;;29.64;67.40;100508.63;129972;1261;114731;-80
2023/08/14 07:11:36;;;;;;;3.90;3.20;;;;;;;29.82;66.17;100513.50;129929;1265;114763;-79
2023/08/14 07:14:38;;;;;;;5.40;3.50;;;;;;;30.08;65.60;100519.14;129823;1263;115594;-75
2023/08/14 07:17:40;;;;;;;3.40;2.90;;;;;;;30.40;64.75;100518.21;129964;1270;114793;-77
2023/08/14 07:20:43;;;;;;;5.40;3.10;;;;;;;30.70;63.58;100521.19;130072;1263;114842;-79
2023/08/14 07:23:45;;;;;;;4.00;3.40;;;;;;;31.01;62.74;100517.69;129852;1260;114906;-80
2023/08/14 07:26:47;;;;;;;3.30;3.00;;;;;;;31.31;61.80;100520.88;130182;1260;114789;-81
2023/08/14 07:29:49;;;;;;;4.20;2.80;;;;;;;31.64;60.79;100521.74;129932;1263;114814;-81
2023/08/14 07:32:51;;;;;;;3.00;2.70;;;;;;;31.98;59.67;100521.03;130023;1278;114788;-81
2023/08/14 07:35:54;;;;;;;4.70;3.30;;;;;;;32.31;59.16;100515.58;129872;1280;115186;-82
2023/08/14 07:38:56;;;;;;;4.90;3.10;;;;;;;32.66;58.32;100510.48;129887;1271;115090;-81
2023/08/14 07:41:58;;;;;;;3.60;2.80;;;;;;;32.98;57.02;100512.92;130338;1257;114842;-81
2023/08/14 07:45:01;;;;;;;5.80;3.20;;;;;;;33.29;55.87;100511.64;129955;1258;115041;-80
2023/08/14 07:48:03;;;;;;;3.50;3.00;;;;;;;33.57;54.70;100512.30;130092;1263;114792;-80
2023/08/14 07:51:05;;;;;;;7.00;3.40;;;;;;;33.85;53.75;100511.52;130172;1280;114748;-79
2023/08/14 07:54:07;;;;;;;4.30;2.70;;;;;;;34.14;53.05;100508.04;130084;1260;114734;-80
2023/08/14 07:57:09;;;;;;;4.50;2.80;;;;;;;34.46;52.48;100500.73;129952;1262;114741;-81
2023/08/14 08:00:13;;;;;;;4.90;2.80;;;;;;;34.70;51.75;100502.40;129966;1260;114806;-79
2023/08/14 08:03:15;;;;;;;3.00;2.70;;;;;;;34.93;51.31;100499.14;130049;1261;120500;-80
2023/08/14 08:06:18;;;;;;;3.00;2.70;;;;;;;35.15;50.08;100499.01;130007;1260;114786;-71
2023/08/14 08:09:20;;;;;;;3.20;2.90;;;;;;;35.33;49.29;100501.06;130044;1260;114716;-79
2023/08/14 08:12:22;;;;;;;4.30;3.10;;;;;;;35.49;48.52;100501.41;127902;1262;3007932;-80
2023/08/14 08:15:24;;;;;;;4.00;3.00;;;;;;;35.50;47.61;100503.29;130028;1270;114738;-75
2023/08/14 08:18:26;;;;;;;2.90;2.70;;;;;;;35.50;47.41;100502.48;129853;1273;115244;-75
2023/08/14 08:21:28;;;;;;;3.60;2.80;;;;;;;35.57;47.04;100503.23;130024;1270;114757;-77
2023/08/14 08:24:30;;;;;;;2.90;2.50;;;;;;;35.60;46.30;100500.19;129880;1262;119200;-76
2023/08/14 08:27:33;;;;;;;5.10;2.90;;;;;;;35.68;45.61;100503.96;129996;1274;114822;-76
2023/08/14 08:30:36;;;;;;;2.90;2.70;;;;;;;35.77;45.41;100502.91;130025;1270;114806;-76
2023/08/14 08:33:38;;;;;;;3.80;2.50;;;;;;;35.86;45.25;100495.34;129964;1260;115102;-76
2023/08/14 08:36:40;;;;;;;2.50;2.30;;;;;;;35.97;44.86;100494.79;130130;1264;114763;-74
2023/08/14 08:39:42;;;;;;;7.80;2.50;;;;;;;36.02;44.97;100494.60;130281;1262;115212;-75
2023/08/14 08:42:45;;;;;;;3.60;3.30;;;;;;;36.11;44.58;100494.91;129974;1276;114817;-76
2023/08/14 08:45:51;;;;;;;3.70;2.90;;;;;;;36.14;44.06;100497.78;129944;1270;114799;-75
2023/08/14 08:48:54;;;;;;;2.90;2.50;;;;;;;36.18;43.59;100494.30;130014;1267;114719;-74
2023/08/14 08:51:56;;;;;;;2.90;2.70;;;;;;;36.04;43.16;100492.41;130049;1265;114752;-75
2023/08/14 08:55:01;;;;;;;3.50;2.40;;;;;;;35.94;42.86;100491.41;129934;1260;114706;-76
2023/08/14 08:58:04;;;;;;;3.60;2.20;;;;;;;35.79;42.49;100489.02;129896;1280;114931;-76
2023/08/14 09:01:06;;;;;;;8.90;3.10;;;;;;;35.56;42.24;100485.50;129953;1257;114805;-75
2023/08/14 09:04:08;;;;;;;3.50;3.10;;;;;;;35.21;41.38;100480.07;129843;1270;114795;-77
2023/08/14 09:07:10;;;;;;;3.70;2.80;;;;;;;34.84;42.13;100482.77;130026;1271;114750;-76
2023/08/14 09:10:12;;;;;;;3.20;2.80;;;;;;;34.59;42.00;100478.59;129621;1263;114751;-73
2023/08/14 09:13:14;;;;;;;2.80;2.60;;;;;;;34.34;41.76;100471.23;129952;1264;114824;-71
2023/08/14 09:16:16;;;;;;;3.40;3.10;;;;;;;34.09;42.13;100475.19;129931;1270;115219;-72
2023/08/14 09:19:18;;;;;;;6.10;3.10;;;;;;;33.96;42.38;100470.31;130000;1276;115177;-73
2023/08/14 09:22:20;;;;;;;5.50;2.40;;;;;;;33.84;42.19;100465.33;129752;1260;115073;-73
2023/08/14 09:25:23;;;;;;;4.00;2.80;;;;;;;33.82;42.49;100466.81;129933;1263;115427;-73
2023/08/14 09:28:25;;;;;;;4.20;2.70;;;;;;;33.87;42.82;100467.23;130154;1258;114746;-75
2023/08/14 09:31:31;;;;;;;3.90;2.90;;;;;;;33.89;42.62;100467.91;129986;1263;114744;-72
2023/08/14 09:34:33;;;;;;;2.70;2.30;;;;;;;33.63;41.84;100472.38;129694;1257;114860;-73
2023/08/14 09:37:35;;;;;;;4.70;3.10;;;;;;;33.37;42.44;100470.88;129980;1257;114747;-79
2023/08/14 09:40:37;;;;;;;4.70;2.80;;;;;;;33.29;43.03;100467.80;130078;1276;114743;-76
2023/08/14 09:43:39;;;;;;;6.50;3.20;;;;;;;33.23;43.48;100468.35;130226;1258;115343;-74
2023/08/14 09:46:41;;;;;;;4.20;3.40;;;;;;;33.13;43.48;100468.79;130103;1280;114785;-71
2023/08/14 09:49:44;;;;;;;8.30;3.30;;;;;;;32.94;43.12;100469.14;130041;1261;114754;-73
2023/08/14 09:52:46;;;;;;;;;;;;;;;32.76;43.46;100471.41;129902;1260;114915;-74
2023/08/14 09:55:48;;;;;;;7.10;3.00;;;;;;;32.66;43.58;100469.52;129873;1263;114956;-69
2023/08/14 09:58:53;;;;;;;4.70;3.00;;;;;;;32.56;43.78;100464.42;129977;1257;114848;-71
2023/08/14 10:01:58;;;;;;;3.80;2.70;;;;;;;32.41;43.87;100455.98;129833;1258;119116;-69
2023/08/14 10:05:04;;;;;;;2.70;2.50;;;;;;;32.34;43.96;100457.40;130016;1261;115290;-74
2023/08/14 10:08:08;;;;;;;2.90;2.60;;;;;;;32.25;44.43;100458.77;129747;1279;115256;-71
2023/08/14 10:11:16;;;;;;;4.10;2.80;;;;;;;32.17;44.85;100459.20;129850;1276;114902;-71
2023/08/14 10:14:19;;;;;;;3.90;2.90;;;;;;;32.06;44.91;100460.44;130067;1267;114946;-67
2023/08/14 10:17:29;;;;;;;3.70;2.40;;;;;;;31.83;44.79;100460.62;129922;1280;115180;-71
2023/08/14 10:20:35;;;;;;;5.00;2.60;;;;;;;31.55;45.01;100457.89;130037;1263;114783;-68
2023/08/14 10:23:41;;;;;;;6.20;2.90;;;;;;;31.35;45.25;100467.23;129796;1267;114910;-69
2023/08/14 10:26:44;;;;;;;3.30;2.60;;;;;;;31.19;45.32;100468.10;129928;1263;114716;-69
2023/08/14 10:29:47;;;;;;;3.10;2.70;;;;;;;31.10;45.33;100462.08;129865;1264;114741;-71
2023/08/14 10:32:51;;;;;;;4.40;2.50;;;;;;;31.01;45.77;100463.41;129967;1280;114936;-68
2023/08/14 10:35:54;;;;;;;3.10;2.50;;;;;;;31.00;45.66;100457.73;130175;1263;114782;-69
2023/08/14 10:39:11;;;;;;;5.20;3.20;;;;;;;30.99;45.83;100454.24;129966;1264;114759;-68
2023/08/14 10:42:15;;;;;;;3.90;3.40;;;;;;;31.00;46.35;100454.77;130037;1259;114839;-68
2023/08/14 10:45:18;;;;;;;4.10;3.10;;;;;;;30.98;46.20;100454.50;129976;1281;115383;-66
2023/08/14 10:48:21;;;;;;;3.60;3.30;;;;;;;30.98;46.42;100451.70;129755;1280;121096;-66
2023/08/14 10:51:23;;;;;;;3.70;3.20;;;;;;;31.01;47.20;100448.59;129929;1261;114782;-65
2023/08/14 10:54:36;;;;;;;3.30;2.90;;;;;;;31.11;47.74;100449.02;130199;1263;114815;-65
2023/08/14 10:57:38;;;;;;;5.20;3.10;;;;;;;31.20;47.69;100449.41;130113;1263;114728;-66
2023/08/14 11:00:45;;;;;;;4.70;3.10;;;;;;;31.19;46.91;100449.10;129692;1264;114783;-67
2023/08/14 11:04:04;;;;;;;5.30;2.40;;;;;;;31.12;47.07;100446.64;130289;1258;119994;-64
2023/08/14 11:07:11;;;;;;;3.00;2.70;;;;;;;31.06;46.90;100447.39;129395;1280;115142;-66
2023/08/14 11:10:14;;;;;;;3.00;2.80;;;;;;;30.97;46.72;100442.19;129722;1260;115193;-69
2023/08/14 11:13:16;;;;;;;3.30;3.00;;;;;;;30.95;46.94;100440.78;130002;1264;115235;-68
2023/08/14 11:16:19;;;;;;;3.90;3.50;;;;;;;30.89;46.59;100435.98;129962;1257;114741;-69
2023/08/14 11:19:21;;;;;;;3.40;3.10;;;;;;;30.85;47.06;100442.63;129903;1261;114732;-68
2023/08/14 11:22:23;;;;;;;3.20;2.80;;;;;;;30.84;47.20;100439.35;130213;1273;114787;-66
2023/08/14 11:25:25;;;;;;;3.40;3.10;;;;;;;30.84;47.07;100439.73;129973;1266;115112;-68
2023/08/14 11:28:27;;;;;;;3.60;3.30;;;;;;;30.82;47.28;100443.29;130082;1273;114737;-70
2023/08/14 11:31:30;;;;;;;3.90;3.60;;;;;;;30.79;47.05;100441.36;129940;1280;114751;-67
2023/08/14 11:34:34;;;;;;;3.70;3.40;;;;;;;30.71;46.53;100440.98;129710;1266;114919;-68
2023/08/14 11:37:36;;;;;;;3.90;2.90;;;;;;;30.66;46.24;100442.92;129992;1261;114805;-68
2023/08/14 11:40:41;;;;;;;4.40;3.50;;;;;;;30.62;46.46;100440.35;129956;1260;114800;-67
2023/08/14 11:43:45;;;;;;;2.80;2.60;;;;;;;30.60;46.43;100440.01;130031;1272;114735;-67
2023/08/14 11:46:48;;;;;;;4.70;3.40;;;;;;;30.56;46.34;100437.29;129967;1261;114727;-67
2023/08/14 11:49:50;;;;;;;3.60;3.00;;;;;;;30.57;46.93;100438.37;129893;1263;115276;-68
2023/08/14 11:52:53;;;;;;;3.30;3.00;;;;;;;30.58;46.72;100437.95;130102;1278;114747;-68
2023/08/14 11:55:54;;;;;;;3.20;2.90;;;;;;;30.61;46.76;100440.19;130135;1262;114742;-68
2023/08/14 11:58:57;;;;;;;5.00;3.00;;;;;;;30.62;46.21;100435.80;130055;1276;114817;-68
2023/08/14 12:02:00;;;;;;;5.60;3.80;;;;;;;30.60;46.33;100434.35;129800;1277;116325;-70
2023/08/14 12:05:02;;;;;;;3.60;2.90;;;;;;;30.57;46.18;100431.32;129865;1257;114828;-66
2023/08/14 12:08:05;;;;;;;5.20;3.20;;;;;;;30.53;45.94;100427.19;130161;1260;114733;-69
2023/08/14 12:11:07;;;;;;;3.00;2.80;;;;;;;30.49;45.83;100421.45;130268;1273;114750;-69
2023/08/14 12:14:09;;;;;;;5.20;3.20;;;;;;;30.45;45.91;100421.91;129978;1260;114799;-69
2023/08/14 12:17:11;;;;;;;3.30;3.10;;;;;;;30.42;45.86;100423.22;129944;1257;114849;-67
2023/08/14 12:20:13;;;;;;;3.90;3.20;;;;;;;30.37;45.88;100424.91;130069;1257;115420;-68
2023/08/14 12:23:15;;;;;;;3.40;3.10;;;;;;;30.32;45.74;100420.56;129988;1257;114738;-67
2023/08/14 12:26:17;;;;;;;4.00;3.20;;;;;;;30.28;45.78;100422.84;130007;1273;115051;-68
2023/08/14 12:29:20;;;;;;;4.50;3.40;;;;;;;30.25;46.12;100414.23;130059;1260;114750;-67
2023/08/14 12:32:24;;;;;;;5.30;3.70;;;;;;;30.24;46.00;100411.41;129973;1261;114866;-70
2023/08/14 12:35:26;;;;;;;3.80;3.40;;;;;;;30.23;46.19;100410.80;130006;1257;114767;-68
2023/08/14 12:38:28;;;;;;;5.30;3.60;;;;;;;30.21;46.47;100411.73;130009;1261;114763;-68
2023/08/14 12:41:30;;;;;;;4.20;3.70;;;;;;;30.17;47.07;100412.70;130082;1257;114705;-69
2023/08/14 12:44:32;;;;;;;4.40;3.90;;;;;;;30.18;46.59;100405.98;129931;1276;116868;-69
2023/08/14 12:47:34;;;;;;;5.70;3.40;;;;;;;30.19;46.84;100405.73;130033;1262;114858;-68
2023/08/14 12:50:36;;;;;;;4.30;3.30;;;;;;;30.18;46.84;100405.09;130287;1257;114693;-66
2023/08/14 12:53:37;;;;;;;6.10;3.60;;;;;;;30.15;47.20;100406.60;130282;1260;114827;-66
2023/08/14 12:56:40;;;;;;;4.20;3.70;;;;;;;30.14;47.31;100405.61;129874;1258;115302;-68
2023/08/14 12:59:42;;;;;;;5.00;3.80;;;;;;;30.11;47.45;100402.83;129865;1264;114842;-67
